createdAt,value
2022-11-13T00:00:58.218Z,0.20
2022-11-13T00:04:03.782Z,0.63
2022-11-13T00:07:09.212Z,0.33
2022-11-13T00:10:14.661Z,0.97
2022-11-13T00:13:19.963Z,1.13
2022-11-13T00:16:30.316Z,0.20
2022-11-13T00:19:35.683Z,0.33
2022-11-13T00:22:41.986Z,0.87
2022-11-13T00:25:47.427Z,0.27
2022-11-13T00:28:53.433Z,0.37
2022-11-13T00:31:58.562Z,1.03
2022-11-13T00:35:04.039Z,0.97
2022-11-13T00:38:09.787Z,0.47
2022-11-13T00:41:15.323Z,1.13
2022-11-13T00:44:20.907Z,0.30
2022-11-13T00:47:26.575Z,0.80
2022-11-13T00:50:31.999Z,0.33
2022-11-13T00:53:37.562Z,1.60
2022-11-13T00:56:43.008Z,2.47
2022-11-13T00:59:48.362Z,0.40
2022-11-13T01:02:53.687Z,0.70
2022-11-13T01:06:02.026Z,1.27
2022-11-13T01:09:07.939Z,0.23
2022-11-13T01:12:13.647Z,1.57
2022-11-13T01:15:19.724Z,1.73
2022-11-13T01:18:25.579Z,1.07
2022-11-13T01:21:38.062Z,0.90
2022-11-13T01:24:43.282Z,0.87
2022-11-13T01:27:48.459Z,2.13
2022-11-13T01:30:53.983Z,1.30
2022-11-13T01:33:59.514Z,1.60
2022-11-13T01:37:05.069Z,1.00
2022-11-13T01:40:10.395Z,1.33
2022-11-13T01:43:16.207Z,1.73
2022-11-13T01:46:36.653Z,3.57
2022-11-13T01:50:01.018Z,1.07
2022-11-13T01:53:06.159Z,1.47
2022-11-13T01:56:12.336Z,3.03
2022-11-13T01:59:40.122Z,1.40
2022-11-13T02:02:46.010Z,1.60
2022-11-13T02:05:51.311Z,3.17
2022-11-13T02:08:56.717Z,1.67
2022-11-13T02:12:02.239Z,1.00
2022-11-13T02:15:12.013Z,0.50
2022-11-13T02:18:20.561Z,0.60
2022-11-13T02:21:54.962Z,0.83
2022-11-13T02:25:02.894Z,0.57
2022-11-13T02:28:10.366Z,0.30
2022-11-13T02:31:15.536Z,0.10
2022-11-13T02:34:24.150Z,1.70
2022-11-13T02:37:29.363Z,0.57
2022-11-13T02:40:34.999Z,0.03
2022-11-13T02:43:40.220Z,0.23
2022-11-13T02:46:45.950Z,0.97
2022-11-13T02:49:51.247Z,0.10
2022-11-13T02:52:57.005Z,0.10
2022-11-13T02:56:02.453Z,0.10
2022-11-13T02:59:07.712Z,0.03
2022-11-13T03:02:13.383Z,0.00
2022-11-13T03:05:18.883Z,0.00
2022-11-13T03:08:26.294Z,0.10
2022-11-13T03:11:32.204Z,1.03
2022-11-13T03:14:37.960Z,0.07
2022-11-13T03:17:43.209Z,4.27
2022-11-13T03:20:48.460Z,0.33
2022-11-13T03:23:54.058Z,0.00
2022-11-13T03:26:59.183Z,0.33
2022-11-13T03:30:04.304Z,0.27
2022-11-13T03:33:14.011Z,0.67
2022-11-13T03:36:19.253Z,0.20
2022-11-13T03:39:25.330Z,0.00
2022-11-13T03:42:30.979Z,0.57
2022-11-13T03:45:36.639Z,0.00
2022-11-13T03:48:42.127Z,0.93
2022-11-13T03:51:47.507Z,0.20
2022-11-13T03:54:52.711Z,0.00
2022-11-13T03:57:57.978Z,0.87
2022-11-13T04:01:05.099Z,0.30
2022-11-13T04:04:10.730Z,0.70
2022-11-13T04:07:16.693Z,0.00
2022-11-13T04:10:22.502Z,0.00
2022-11-13T04:13:28.385Z,0.17
2022-11-13T04:16:33.843Z,1.10
2022-11-13T04:19:39.194Z,0.00
2022-11-13T04:22:45.001Z,0.00
2022-11-13T04:25:50.352Z,0.00
2022-11-13T04:28:55.896Z,0.40
2022-11-13T04:32:01.060Z,0.37
2022-11-13T04:35:06.689Z,0.53
2022-11-13T04:38:12.155Z,0.30
2022-11-13T04:41:16.135Z,1.67
2022-11-13T04:44:21.335Z,0.20
2022-11-13T04:47:26.983Z,0.20
2022-11-13T04:50:32.949Z,0.53
2022-11-13T04:53:38.222Z,0.10
2022-11-13T04:56:43.887Z,0.10
2022-11-13T04:59:49.304Z,0.00
2022-11-13T05:02:55.106Z,0.50
2022-11-13T05:06:00.798Z,0.20
2022-11-13T05:09:06.568Z,0.40
2022-11-13T05:12:12.104Z,0.20
2022-11-13T05:15:17.250Z,0.20
2022-11-13T05:18:22.859Z,0.40
2022-11-13T05:21:29.508Z,0.60
2022-11-13T05:24:34.841Z,0.17
2022-11-13T05:27:40.219Z,0.20
2022-11-13T05:30:46.507Z,0.27
2022-11-13T05:33:52.213Z,1.17
2022-11-13T05:36:57.869Z,1.13
2022-11-13T05:40:03.245Z,0.10
2022-11-13T05:43:08.790Z,0.80
2022-11-13T05:46:20.601Z,0.30
2022-11-13T05:49:26.067Z,0.87
2022-11-13T05:52:31.688Z,0.40
2022-11-13T05:55:37.268Z,1.13
2022-11-13T05:58:42.630Z,2.47
2022-11-13T06:01:49.993Z,0.77
2022-11-13T06:04:56.509Z,0.50
2022-11-13T06:08:02.370Z,1.13
2022-11-13T06:11:07.643Z,1.90
2022-11-13T06:14:14.699Z,0.20
2022-11-13T06:17:20.531Z,0.30
2022-11-13T06:20:26.156Z,1.10
2022-11-13T06:23:31.534Z,1.27
2022-11-13T06:26:40.038Z,0.63
2022-11-13T06:29:45.651Z,2.20
2022-11-13T06:32:51.478Z,0.73
2022-11-13T06:35:57.067Z,0.60
2022-11-13T06:39:03.592Z,2.37
2022-11-13T06:42:08.967Z,0.83
2022-11-13T06:45:14.430Z,2.20
2022-11-13T06:48:19.766Z,1.03
2022-11-13T06:51:27.673Z,1.87
2022-11-13T06:54:33.004Z,0.93
2022-11-13T06:57:38.131Z,1.50
2022-11-13T07:00:43.687Z,3.13
2022-11-13T07:03:48.775Z,0.37
2022-11-13T07:06:54.363Z,2.27
2022-11-13T07:09:59.783Z,0.73
2022-11-13T07:13:05.183Z,0.67
2022-11-13T07:16:16.861Z,0.60
2022-11-13T07:19:23.108Z,1.37
2022-11-13T07:22:28.646Z,0.33
2022-11-13T07:25:34.083Z,1.00
2022-11-13T07:28:39.500Z,0.10
2022-11-13T07:31:45.019Z,1.30
2022-11-13T07:34:50.222Z,1.67
2022-11-13T07:37:56.411Z,1.17
2022-11-13T07:41:01.990Z,0.83
2022-11-13T07:44:09.448Z,1.90
2022-11-13T07:47:15.506Z,1.27
2022-11-13T07:50:21.071Z,1.63
2022-11-13T07:53:28.408Z,0.70
2022-11-13T07:56:33.868Z,1.60
2022-11-13T07:59:39.374Z,1.40
2022-11-13T08:02:44.756Z,0.73
2022-11-13T08:05:50.825Z,0.80
2022-11-13T08:08:56.316Z,0.77
2022-11-13T08:12:01.995Z,1.60
2022-11-13T08:15:10.708Z,2.10
2022-11-13T08:18:21.950Z,1.87
2022-11-13T08:21:27.220Z,1.03
2022-11-13T08:24:32.877Z,1.67
2022-11-13T08:27:38.553Z,1.13
2022-11-13T08:30:45.385Z,0.77
2022-11-13T08:33:51.292Z,1.10
2022-11-13T08:36:56.875Z,0.60
2022-11-13T08:40:02.305Z,0.97
2022-11-13T08:43:07.479Z,0.50
2022-11-13T08:46:12.855Z,1.17
2022-11-13T08:49:18.382Z,1.10
2022-11-13T08:52:24.247Z,1.40
2022-11-13T08:55:29.797Z,3.50
2022-11-13T08:58:35.537Z,3.43
2022-11-13T09:01:40.766Z,1.43
2022-11-13T09:04:46.799Z,1.30
2022-11-13T09:07:52.384Z,1.13
2022-11-13T09:10:57.471Z,0.53
2022-11-13T09:14:02.936Z,1.47
2022-11-13T09:17:08.640Z,1.63
2022-11-13T09:20:14.651Z,1.17
2022-11-13T09:23:24.112Z,3.23
2022-11-13T09:26:29.834Z,2.20
2022-11-13T09:29:35.176Z,1.17
2022-11-13T09:32:40.706Z,2.30
2022-11-13T09:35:55.892Z,1.80
2022-11-13T09:39:02.056Z,0.47
2022-11-13T09:42:13.079Z,1.77
2022-11-13T09:45:25.976Z,1.70
2022-11-13T09:48:50.802Z,2.20
2022-11-13T09:52:00.603Z,1.83
2022-11-13T09:55:08.442Z,2.07
2022-11-13T09:58:21.543Z,0.83
2022-11-13T10:01:41.921Z,2.60
2022-11-13T10:04:58.156Z,0.97
2022-11-13T10:08:22.108Z,1.17
2022-11-13T10:11:42.263Z,1.43
2022-11-13T10:15:10.758Z,1.73
2022-11-13T10:18:21.671Z,2.00
2022-11-13T10:21:40.672Z,1.10
2022-11-13T10:24:48.770Z,1.67
2022-11-13T10:27:54.355Z,2.27
2022-11-13T10:31:01.099Z,0.73
2022-11-13T10:34:06.537Z,2.17
2022-11-13T10:37:32.603Z,2.20
2022-11-13T10:40:48.119Z,2.20
2022-11-13T10:43:53.966Z,1.13
2022-11-13T11:29:50.403Z,1.07
2022-11-13T11:33:03.866Z,1.60
2022-11-13T11:36:28.044Z,2.37
2022-11-13T11:39:39.804Z,0.87
2022-11-13T11:42:56.593Z,2.23
2022-11-13T11:46:04.655Z,1.00
2022-11-13T11:49:11.138Z,1.97
2022-11-13T11:52:36.479Z,2.97
2022-11-13T11:55:50.999Z,1.73
2022-11-13T11:59:26.426Z,0.93
2022-11-13T12:03:01.394Z,2.10
2022-11-13T12:06:15.802Z,1.70
2022-11-13T12:09:24.425Z,0.80
2022-11-13T12:12:32.294Z,0.87
2022-11-13T12:15:55.026Z,1.87
2022-11-13T12:19:11.392Z,3.27
2022-11-13T12:22:17.335Z,1.73
2022-11-13T12:25:20.919Z,4.07
2022-11-13T12:28:40.813Z,2.37
2022-11-13T12:31:44.759Z,2.60
2022-11-13T12:34:33.832Z,1.80
2022-11-13T12:37:26.675Z,3.57
2022-11-13T12:40:44.680Z,1.80
2022-11-13T12:43:45.278Z,3.33
2022-11-13T12:46:40.104Z,2.57
2022-11-13T12:49:49.664Z,1.73
2022-11-13T12:52:55.245Z,2.80
2022-11-13T12:55:41.112Z,2.37
2022-11-13T12:58:32.287Z,3.33
2022-11-13T13:01:20.783Z,5.47
2022-11-13T13:04:29.022Z,3.17
2022-11-13T13:07:36.071Z,1.73
2022-11-13T13:10:35.091Z,3.60
2022-11-13T13:13:25.998Z,2.10
2022-11-13T13:16:12.166Z,2.47
2022-11-13T13:19:22.666Z,2.33
2022-11-13T13:22:32.498Z,1.57
2022-11-13T13:25:27.720Z,3.13
2022-11-13T13:28:21.631Z,3.20
2022-11-13T13:31:26.071Z,2.33
2022-11-13T13:34:46.960Z,2.67
2022-11-13T13:37:49.871Z,4.53
2022-11-13T13:40:41.195Z,2.00
2022-11-13T13:43:51.382Z,4.00
2022-11-13T13:46:37.458Z,1.53
2022-11-13T13:49:24.803Z,2.83
2022-11-13T13:52:15.676Z,4.93
2022-11-13T13:55:04.062Z,2.67
2022-11-13T13:57:50.095Z,3.63
2022-11-13T14:00:44.603Z,6.07
2022-11-13T14:03:39.127Z,6.37
2022-11-13T14:06:24.934Z,4.70
2022-11-13T14:09:17.074Z,3.33
2022-11-13T14:15:33.383Z,3.93
2022-11-13T14:18:19.816Z,3.50
2022-11-13T14:21:16.172Z,4.00
2022-11-13T14:24:03.663Z,1.80
2022-11-13T14:26:52.886Z,5.47
2022-11-13T14:29:49.080Z,1.87
2022-11-13T14:32:45.645Z,2.70
2022-11-13T14:35:32.870Z,2.20
2022-11-13T14:38:21.456Z,3.23
2022-11-13T14:41:15.219Z,3.73
2022-11-13T14:44:01.069Z,4.50
2022-11-13T14:46:47.579Z,4.60
2022-11-13T14:49:37.720Z,5.87
2022-11-13T14:52:28.239Z,2.50
2022-11-13T14:55:32.128Z,2.60
2022-11-13T14:58:36.411Z,2.83
2022-11-13T15:01:24.713Z,2.87
2022-11-13T15:04:10.179Z,2.33
2022-11-13T15:07:00.295Z,3.77
2022-11-13T15:09:46.047Z,2.13
2022-11-13T15:12:31.471Z,2.67
2022-11-13T15:15:23.221Z,5.90
2022-11-13T15:18:16.899Z,6.17
2022-11-13T15:21:02.923Z,3.73
2022-11-13T15:23:48.214Z,5.53
2022-11-13T15:26:33.414Z,3.80
2022-11-13T15:29:18.726Z,6.73
2022-11-13T15:32:04.078Z,5.57
2022-11-13T15:34:49.871Z,6.70
2022-11-13T15:37:35.314Z,7.57
2022-11-13T15:40:20.570Z,7.37
2022-11-13T15:43:11.891Z,7.57
2022-11-13T15:45:57.818Z,10.37
2022-11-13T15:48:43.306Z,5.70
2022-11-13T15:52:03.964Z,7.67
2022-11-13T15:55:09.850Z,6.40
2022-11-13T15:58:15.673Z,7.43
2022-11-13T16:01:20.915Z,6.73
2022-11-13T16:04:50.486Z,9.10
2022-11-13T16:07:51.995Z,6.47
2022-11-13T16:10:57.363Z,9.03
2022-11-13T16:14:03.379Z,7.20
2022-11-13T16:17:06.619Z,10.27
2022-11-13T16:20:13.956Z,11.07
2022-11-13T16:23:19.427Z,6.50
2022-11-13T16:26:25.424Z,9.23
2022-11-13T16:29:38.802Z,7.27
2022-11-13T16:32:44.155Z,6.50
2022-11-13T16:35:49.559Z,10.60
2022-11-13T16:38:55.138Z,5.23
2022-11-13T16:42:00.406Z,11.00
2022-11-13T16:45:05.991Z,8.30
2022-11-13T16:48:11.264Z,6.27
2022-11-13T16:51:16.792Z,7.33
2022-11-13T16:54:22.368Z,6.87
2022-11-13T16:57:32.539Z,4.73
2022-11-13T17:00:39.631Z,7.00
2022-11-13T17:03:44.886Z,4.03
2022-11-13T17:06:56.579Z,4.13
2022-11-13T17:10:29.806Z,5.17
2022-11-13T17:13:30.989Z,3.50
2022-11-13T17:16:37.375Z,6.03
2022-11-13T17:19:42.533Z,5.20
2022-11-13T17:22:48.078Z,4.27
2022-11-13T17:25:53.716Z,3.97
2022-11-13T17:28:59.379Z,6.90
2022-11-13T17:32:04.925Z,5.17
2022-11-13T17:35:10.670Z,3.40
2022-11-13T17:38:15.749Z,2.80
2022-11-13T17:41:29.247Z,5.20
2022-11-13T17:44:34.934Z,5.20
2022-11-13T17:47:40.221Z,4.53
2022-11-13T17:50:45.427Z,4.70
2022-11-13T17:53:51.133Z,7.67
2022-11-13T17:56:56.602Z,6.43
2022-11-13T18:00:02.379Z,3.57
2022-11-13T18:03:07.907Z,3.70
2022-11-13T18:06:13.669Z,6.13
2022-11-13T18:09:21.222Z,7.83
2022-11-13T18:12:26.875Z,7.97
2022-11-13T18:15:32.501Z,6.20
2022-11-13T18:18:37.606Z,3.67
2022-11-13T18:21:46.412Z,2.83
2022-11-13T18:24:51.623Z,6.67
2022-11-13T18:27:57.378Z,3.17
2022-11-13T18:31:03.143Z,3.20
2022-11-13T18:34:09.113Z,2.93
2022-11-13T18:37:15.110Z,6.63
2022-11-13T18:40:20.761Z,2.80
2022-11-13T18:43:26.378Z,6.73
2022-11-13T18:46:34.066Z,3.47
2022-11-13T18:49:39.970Z,9.00
2022-11-13T18:52:45.542Z,6.00
2022-11-13T18:55:51.064Z,6.20
2022-11-13T18:58:59.363Z,4.43
2022-11-13T19:02:05.438Z,4.27
2022-11-13T19:05:10.927Z,5.23
2022-11-13T19:08:16.431Z,7.57
2022-11-13T19:11:33.684Z,4.97
2022-11-13T19:14:39.215Z,4.70
2022-11-13T19:17:45.070Z,4.70
2022-11-13T19:20:52.842Z,6.27
2022-11-13T19:23:58.623Z,7.17
2022-11-13T19:27:04.490Z,5.70
2022-11-13T19:30:09.783Z,6.77
2022-11-13T19:33:15.272Z,6.13
2022-11-13T19:36:30.224Z,4.37
2022-11-13T19:39:35.832Z,6.50
2022-11-13T19:42:42.150Z,3.20
2022-11-13T19:45:47.496Z,3.93
2022-11-13T19:48:53.916Z,4.30
2022-11-13T19:51:59.095Z,4.17
2022-11-13T19:55:04.604Z,4.30
2022-11-13T19:58:09.987Z,3.73
2022-11-13T20:01:16.722Z,6.23
2022-11-13T20:04:23.967Z,6.47
2022-11-13T20:07:29.686Z,3.50
2022-11-13T20:10:35.678Z,5.87
2022-11-13T20:13:41.184Z,4.77
2022-11-13T20:16:47.039Z,5.23
2022-11-13T20:19:52.634Z,6.60
2022-11-13T20:22:58.236Z,6.13
2022-11-13T20:26:11.881Z,6.10
2022-11-13T20:29:17.315Z,4.03
2022-11-13T20:32:23.071Z,5.07
2022-11-13T20:35:28.998Z,4.03
2022-11-13T20:38:34.226Z,4.03
2022-11-13T20:41:39.671Z,3.63
2022-11-13T20:44:45.007Z,3.60
2022-11-13T20:47:50.797Z,4.87
2022-11-13T20:50:56.948Z,3.87
2022-11-13T20:54:02.647Z,5.43
2022-11-13T20:57:07.754Z,5.63
2022-11-13T21:00:13.432Z,5.53
2022-11-13T21:03:19.025Z,5.57
2022-11-13T21:06:05.894Z,6.47
2022-11-13T21:08:53.676Z,7.60
2022-11-13T21:11:39.438Z,5.97
2022-11-13T21:14:25.252Z,6.37
2022-11-13T21:17:11.119Z,5.10
2022-11-13T21:19:57.875Z,5.23
2022-11-13T21:22:43.585Z,7.17
2022-11-13T21:25:29.287Z,8.33
2022-11-13T21:28:16.491Z,6.87
2022-11-13T21:31:33.104Z,5.60
2022-11-13T21:34:38.346Z,5.53
2022-11-13T21:37:43.976Z,2.93
2022-11-13T21:40:49.131Z,5.77
2022-11-13T21:43:54.938Z,4.53
2022-11-13T21:47:03.167Z,4.43
2022-11-13T21:50:08.959Z,3.30
2022-11-13T21:53:14.265Z,6.30
2022-11-13T21:56:19.851Z,4.10
2022-11-13T21:59:26.043Z,7.80
2022-11-13T22:02:31.756Z,4.00
2022-11-13T22:05:37.195Z,6.33
2022-11-13T22:08:42.897Z,3.53
2022-11-13T22:11:32.518Z,5.47
2022-11-13T22:14:18.793Z,4.17
2022-11-13T22:17:04.715Z,5.10
2022-11-13T22:19:50.493Z,3.00
2022-11-13T22:22:36.034Z,3.70
2022-11-13T22:25:21.422Z,2.83
2022-11-13T22:28:06.850Z,5.00
2022-11-13T22:30:53.095Z,3.17
2022-11-13T22:33:40.373Z,4.30
2022-11-13T22:36:37.643Z,3.50
2022-11-13T22:39:23.095Z,3.53
2022-11-13T22:42:08.492Z,5.23
2022-11-13T22:44:56.305Z,5.73
2022-11-13T22:47:42.655Z,3.23
2022-11-13T22:50:28.043Z,3.77
2022-11-13T22:53:14.840Z,2.83
2022-11-13T22:56:09.450Z,5.17
2022-11-13T22:58:56.700Z,4.57
2022-11-13T23:01:47.510Z,2.77
2022-11-13T23:04:32.987Z,5.63
2022-11-13T23:07:18.190Z,7.50
2022-11-13T23:10:04.175Z,3.13
2022-11-13T23:12:49.567Z,4.50
2022-11-13T23:15:35.195Z,3.00
2022-11-13T23:18:20.636Z,5.60
2022-11-13T23:21:07.534Z,2.70
2022-11-13T23:23:53.769Z,5.20
2022-11-13T23:26:39.643Z,5.00
2022-11-13T23:29:25.244Z,3.70
2022-11-13T23:32:10.387Z,4.67
2022-11-13T23:34:59.910Z,3.10
2022-11-13T23:37:46.864Z,3.77
2022-11-13T23:40:32.259Z,4.37
2022-11-13T23:43:18.189Z,1.87
2022-11-13T23:46:05.075Z,2.40
2022-11-13T23:48:50.330Z,2.27
2022-11-13T23:51:35.716Z,1.70
2022-11-13T23:54:21.082Z,2.13
2022-11-13T23:57:06.543Z,1.93
2022-11-13T23:59:52.107Z,1.77
